createdAt,value
2022-09-11T00:01:56.844Z,10.27
2022-09-11T00:04:42.187Z,10.23
2022-09-11T00:07:28.094Z,10.07
2022-09-11T00:10:14.182Z,11.13
2022-09-11T00:12:59.711Z,10.85
2022-09-11T00:15:46.275Z,10.40
2022-09-11T00:18:33.103Z,10.05
2022-09-11T00:21:18.617Z,11.48
2022-09-11T00:24:04.705Z,10.65
2022-09-11T00:26:49.829Z,9.70
2022-09-11T00:29:35.736Z,8.23
2022-09-11T00:32:21.417Z,9.05
2022-09-11T00:35:07.236Z,9.48
2022-09-11T00:37:52.890Z,8.40
2022-09-11T00:40:46.489Z,8.63
2022-09-11T00:43:59.693Z,8.95
2022-09-11T00:47:15.657Z,8.57
2022-09-11T00:50:13.779Z,10.43
2022-09-11T00:53:07.958Z,10.35
2022-09-11T00:55:57.801Z,11.73
2022-09-11T00:58:46.667Z,12.02
2022-09-11T01:01:33.286Z,10.88
2022-09-11T01:04:20.758Z,12.40
2022-09-11T01:07:06.351Z,11.50
2022-09-11T01:09:52.322Z,12.38
2022-09-11T01:13:01.041Z,11.13
2022-09-11T01:15:49.842Z,11.40
2022-09-11T01:18:38.887Z,10.15
2022-09-11T01:21:41.275Z,10.02
2022-09-11T01:24:42.143Z,10.20
2022-09-11T01:27:47.314Z,9.07
2022-09-11T01:30:40.471Z,9.45
2022-09-11T01:34:12.135Z,10.10
2022-09-11T01:37:04.671Z,9.15
2022-09-11T01:39:58.650Z,9.30
2022-09-11T01:42:46.290Z,8.98
2022-09-11T01:45:34.057Z,9.38
2022-09-11T01:48:29.850Z,9.00
2022-09-11T01:51:21.165Z,9.13
2022-09-11T01:54:12.949Z,9.13
2022-09-11T01:57:06.859Z,9.30
2022-09-11T01:59:57.214Z,8.60
2022-09-11T02:02:53.690Z,8.10
2022-09-11T02:05:44.532Z,8.50
2022-09-11T02:08:39.573Z,9.30
2022-09-11T02:11:25.490Z,8.95
2022-09-11T02:14:39.118Z,10.07
2022-09-11T02:20:30.417Z,10.45
2022-09-11T02:23:16.696Z,9.93
2022-09-11T02:26:03.094Z,10.55
2022-09-11T02:28:48.666Z,9.38
2022-09-11T02:31:35.736Z,9.95
2022-09-11T02:34:28.301Z,11.15
2022-09-11T02:37:54.466Z,11.27
2022-09-11T02:41:08.660Z,12.15
2022-09-11T02:44:24.365Z,11.75
2022-09-11T02:47:40.530Z,11.00
2022-09-11T02:50:41.001Z,11.55
2022-09-11T02:53:44.030Z,12.20
2022-09-11T02:56:40.679Z,13.90
2022-09-11T02:59:34.069Z,12.00
2022-09-11T03:02:19.962Z,14.60
2022-09-11T03:05:06.093Z,12.15
2022-09-11T03:07:51.875Z,13.38
2022-09-11T03:10:38.603Z,12.38
2022-09-11T03:13:23.834Z,14.07
2022-09-11T03:16:09.826Z,12.45
2022-09-11T03:18:55.183Z,13.07
2022-09-11T03:21:40.681Z,12.70
2022-09-11T03:24:26.803Z,12.25
2022-09-11T03:27:12.036Z,12.40
2022-09-11T03:29:58.701Z,11.82
2022-09-11T03:32:44.166Z,13.80
2022-09-11T03:35:29.788Z,14.65
2022-09-11T03:38:15.942Z,13.45
2022-09-11T03:41:02.918Z,15.68
2022-09-11T03:43:48.661Z,16.00
2022-09-11T03:46:35.050Z,15.23
2022-09-11T03:49:20.593Z,14.27
2022-09-11T03:52:06.130Z,19.63
2022-09-11T03:54:51.595Z,20.30
2022-09-11T03:57:38.642Z,23.83
2022-09-11T04:00:24.338Z,24.30
2022-09-11T04:03:11.327Z,23.42
2022-09-11T04:06:02.526Z,24.25
2022-09-11T04:08:48.042Z,26.95
2022-09-11T04:11:38.737Z,26.73
2022-09-11T04:14:24.275Z,29.13
2022-09-11T04:17:09.845Z,34.70
2022-09-11T04:19:55.413Z,24.88
2022-09-11T04:22:41.588Z,31.45
2022-09-11T04:25:26.895Z,29.58
2022-09-11T04:28:12.781Z,29.08
2022-09-11T04:31:03.686Z,25.75
2022-09-11T04:33:49.287Z,29.02
2022-09-11T04:36:34.439Z,25.90
2022-09-11T04:39:19.903Z,26.23
2022-09-11T04:42:05.698Z,22.73
2022-09-11T04:44:50.866Z,24.00
2022-09-11T04:47:36.891Z,22.55
2022-09-11T04:50:22.432Z,24.15
2022-09-11T04:53:07.989Z,24.58
2022-09-11T04:56:13.399Z,26.98
2022-09-11T04:59:02.756Z,21.75
2022-09-11T05:01:48.421Z,20.48
2022-09-11T05:04:33.588Z,22.88
2022-09-11T05:07:19.298Z,23.85
2022-09-11T05:10:05.995Z,21.10
2022-09-11T05:12:51.617Z,24.85
2022-09-11T05:15:37.103Z,18.98
2022-09-11T05:18:22.992Z,22.58
2022-09-11T05:21:13.674Z,20.63
2022-09-11T05:24:01.255Z,20.15
2022-09-11T05:26:46.921Z,19.50
2022-09-11T05:29:33.056Z,18.23
2022-09-11T05:32:18.481Z,20.17
2022-09-11T05:35:04.171Z,18.67
2022-09-11T05:37:49.419Z,20.25
2022-09-11T05:40:34.972Z,21.65
2022-09-11T05:43:20.790Z,17.67
2022-09-11T05:46:08.131Z,16.52
2022-09-11T05:48:53.734Z,18.58
2022-09-11T05:51:41.589Z,18.35
2022-09-11T05:54:27.395Z,18.88
2022-09-11T05:57:12.825Z,20.30
2022-09-11T05:59:58.769Z,17.08
2022-09-11T06:02:45.367Z,20.10
2022-09-11T06:05:31.146Z,18.00
2022-09-11T06:08:16.406Z,17.88
2022-09-11T06:11:07.147Z,18.08
2022-09-11T06:13:52.586Z,19.83
2022-09-11T06:16:38.498Z,17.20
2022-09-11T06:19:23.796Z,15.27
2022-09-11T06:22:10.176Z,15.90
2022-09-11T06:24:55.674Z,17.08
2022-09-11T06:27:41.050Z,16.77
2022-09-11T06:30:27.081Z,16.70
2022-09-11T06:33:12.370Z,16.27
2022-09-11T06:35:59.487Z,16.13
2022-09-11T06:38:45.438Z,17.15
2022-09-11T06:41:31.083Z,15.63
2022-09-11T06:44:17.280Z,15.25
2022-09-11T06:47:02.665Z,16.75
2022-09-11T06:49:47.858Z,15.57
2022-09-11T06:52:35.183Z,14.38
2022-09-11T06:55:20.414Z,14.25
2022-09-11T06:58:07.162Z,13.77
2022-09-11T07:00:52.716Z,13.00
2022-09-11T07:03:41.507Z,13.18
2022-09-11T07:06:28.979Z,12.73
2022-09-11T07:09:14.174Z,12.02
2022-09-11T07:11:59.577Z,12.23
2022-09-11T07:14:45.167Z,12.18
2022-09-11T07:17:30.663Z,11.43
2022-09-11T07:20:17.708Z,10.65
2022-09-11T07:23:03.362Z,10.93
2022-09-11T07:25:49.675Z,10.32
2022-09-11T07:28:37.616Z,10.20
2022-09-11T07:31:32.977Z,9.40
2022-09-11T07:34:18.207Z,9.60
2022-09-11T07:37:03.902Z,9.45
2022-09-11T07:39:49.083Z,9.13
2022-09-11T07:42:34.761Z,8.68
2022-09-11T07:45:22.701Z,9.32
2022-09-11T07:48:08.613Z,9.63
2022-09-11T07:51:05.538Z,9.43
2022-09-11T07:53:53.256Z,9.88
2022-09-11T07:56:38.582Z,9.48
2022-09-11T07:59:24.506Z,9.75
2022-09-11T08:02:11.726Z,10.00
2022-09-11T08:04:58.189Z,9.95
2022-09-11T08:07:43.550Z,9.02
2022-09-11T08:10:29.451Z,8.93
2022-09-11T08:13:16.219Z,7.47
2022-09-11T08:16:02.040Z,7.18
2022-09-11T08:18:48.221Z,7.35
2022-09-11T08:21:33.704Z,8.52
2022-09-11T08:24:24.386Z,8.23
2022-09-11T08:27:10.436Z,7.22
2022-09-11T08:29:56.150Z,6.70
2022-09-11T08:32:42.626Z,6.28
2022-09-11T08:35:28.255Z,6.95
2022-09-11T08:38:14.141Z,7.63
2022-09-11T08:41:15.416Z,6.35
2022-09-11T08:44:09.821Z,7.07
2022-09-11T08:47:07.542Z,5.45
2022-09-11T08:50:02.612Z,5.65
2022-09-11T08:52:48.832Z,6.10
2022-09-11T08:56:00.327Z,5.72
2022-09-11T08:59:17.148Z,6.20
2022-09-11T09:02:41.220Z,5.68
2022-09-11T09:05:32.825Z,5.43
2022-09-11T09:09:15.114Z,5.53
2022-09-11T09:12:09.618Z,5.15
2022-09-11T09:15:18.601Z,5.90
2022-09-11T09:18:30.691Z,4.43
2022-09-11T09:21:20.592Z,4.80
2022-09-11T09:24:19.262Z,4.07
2022-09-11T09:27:07.107Z,4.97
2022-09-11T09:29:55.790Z,4.55
2022-09-11T09:32:55.693Z,3.90
2022-09-11T09:35:43.170Z,3.53
2022-09-11T09:38:31.396Z,3.30
2022-09-11T09:41:27.077Z,3.92
2022-09-11T09:44:19.634Z,3.53
2022-09-11T09:47:10.330Z,3.47
2022-09-11T09:49:59.038Z,3.28
2022-09-11T09:52:44.843Z,2.90
2022-09-11T09:55:32.064Z,4.43
2022-09-11T09:58:18.226Z,2.97
2022-09-11T10:01:06.285Z,4.45
2022-09-11T10:04:16.581Z,4.00
2022-09-11T10:07:14.075Z,3.58
2022-09-11T10:10:03.396Z,3.70
2022-09-11T10:12:48.991Z,3.67
2022-09-11T10:15:43.787Z,4.05
2022-09-11T10:18:32.305Z,4.18
2022-09-11T10:21:21.205Z,3.60
2022-09-11T10:24:09.837Z,3.83
2022-09-11T10:26:55.787Z,3.33
2022-09-11T10:29:54.306Z,3.40
2022-09-11T10:32:42.668Z,2.90
2022-09-11T10:35:30.052Z,3.05
2022-09-11T10:38:20.697Z,3.47
2022-09-11T10:41:12.214Z,3.47
2022-09-11T10:44:02.207Z,3.67
2022-09-11T10:47:13.715Z,4.05
2022-09-11T10:50:17.716Z,3.28
2022-09-11T10:53:17.851Z,2.67
2022-09-11T10:56:06.014Z,2.65
2022-09-11T10:58:55.120Z,3.03
2022-09-11T11:01:40.838Z,2.42
2022-09-11T11:04:31.417Z,2.72
2022-09-11T11:07:39.474Z,2.33
2022-09-11T11:10:36.806Z,2.30
2022-09-11T11:13:49.826Z,1.95
2022-09-11T11:16:50.686Z,2.40
2022-09-11T11:20:10.848Z,2.30
2022-09-11T11:23:24.305Z,2.50
2022-09-11T11:26:28.018Z,2.75
2022-09-11T11:29:41.255Z,3.13
2022-09-11T11:32:50.108Z,3.28
2022-09-11T11:35:57.841Z,2.10
2022-09-11T11:39:00.438Z,2.35
2022-09-11T11:42:11.101Z,3.00
2022-09-11T11:44:57.918Z,2.17
2022-09-11T11:47:44.920Z,2.42
2022-09-11T11:50:40.411Z,3.00
2022-09-11T11:53:31.597Z,3.35
2022-09-11T11:56:33.285Z,2.55
2022-09-11T11:59:36.945Z,2.58
2022-09-11T12:02:35.218Z,2.97
2022-09-11T12:05:34.675Z,2.83
2022-09-11T12:08:19.881Z,2.78
2022-09-11T12:11:07.893Z,2.92
2022-09-11T12:13:55.066Z,3.08
2022-09-11T12:16:41.250Z,2.65
2022-09-11T12:19:26.703Z,2.35
2022-09-11T12:22:12.730Z,2.40
2022-09-11T12:24:59.347Z,2.80
2022-09-11T12:27:45.030Z,2.78
2022-09-11T12:30:30.883Z,2.65
2022-09-11T12:33:41.428Z,2.50
2022-09-11T12:36:49.227Z,2.20
2022-09-11T12:40:16.876Z,2.65
2022-09-11T12:43:29.430Z,2.47
2022-09-11T12:46:20.722Z,2.20
2022-09-11T12:49:21.591Z,2.38
2022-09-11T12:52:26.345Z,2.08
2022-09-11T12:55:25.430Z,2.20
2022-09-11T12:58:19.916Z,2.35
2022-09-11T13:01:11.136Z,1.80
2022-09-11T13:04:12.266Z,2.13
2022-09-11T13:07:07.434Z,2.30
2022-09-11T13:09:52.993Z,2.15
2022-09-11T13:12:49.949Z,2.17
2022-09-11T13:15:41.213Z,1.98
2022-09-11T13:18:33.038Z,2.33
2022-09-11T13:21:21.993Z,2.80
2022-09-11T13:24:25.663Z,2.47
2022-09-11T13:27:28.179Z,1.95
2022-09-11T13:30:16.873Z,2.17
2022-09-11T13:33:22.359Z,2.47
2022-09-11T13:36:14.937Z,2.88
2022-09-11T13:39:02.667Z,2.20
2022-09-11T13:41:50.754Z,2.25
2022-09-11T13:44:41.420Z,2.80
2022-09-11T13:47:29.127Z,2.22
2022-09-11T13:50:17.897Z,2.47
2022-09-11T13:53:03.262Z,3.22
2022-09-11T13:55:49.713Z,2.63
2022-09-11T13:58:39.619Z,2.90
2022-09-11T14:01:24.973Z,2.85
2022-09-11T14:04:12.136Z,2.60
2022-09-11T14:06:57.422Z,2.63
2022-09-11T14:09:50.591Z,2.10
2022-09-11T14:15:37.866Z,2.95
2022-09-11T14:18:29.126Z,2.60
2022-09-11T14:21:22.952Z,2.30
2022-09-11T14:24:32.691Z,1.85
2022-09-11T14:27:35.214Z,2.03
2022-09-11T14:30:28.253Z,2.58
2022-09-11T14:33:16.611Z,2.55
2022-09-11T14:36:07.908Z,2.40
2022-09-11T14:38:54.393Z,2.10
2022-09-11T14:41:42.625Z,2.00
2022-09-11T14:44:28.958Z,2.08
2022-09-11T14:47:20.189Z,1.48
2022-09-11T14:50:11.918Z,1.95
2022-09-11T14:52:57.281Z,2.03
2022-09-11T14:55:43.550Z,2.17
2022-09-11T14:58:29.877Z,2.70
2022-09-11T15:01:15.410Z,2.80
2022-09-11T15:04:01.796Z,2.40
2022-09-11T15:06:52.149Z,2.20
2022-09-11T15:09:38.258Z,2.00
2022-09-11T15:12:23.863Z,2.65
2022-09-11T15:15:09.811Z,2.30
2022-09-11T15:17:56.011Z,2.30
2022-09-11T15:20:41.383Z,2.40
2022-09-11T15:23:26.671Z,2.03
2022-09-11T15:26:12.279Z,2.45
2022-09-11T15:28:57.568Z,2.08
2022-09-11T15:31:43.199Z,2.10
2022-09-11T15:34:32.487Z,2.53
2022-09-11T15:37:18.102Z,2.42
2022-09-11T15:40:04.189Z,2.38
2022-09-11T15:42:49.968Z,2.50
2022-09-11T15:45:42.743Z,1.90
2022-09-11T15:51:20.698Z,2.28
2022-09-11T15:54:06.608Z,1.63
2022-09-11T15:56:53.021Z,2.50
2022-09-11T15:59:39.753Z,2.33
2022-09-11T16:02:25.246Z,1.90
2022-09-11T16:05:10.693Z,2.00
2022-09-11T16:07:55.963Z,3.00
2022-09-11T16:10:41.860Z,2.13
2022-09-11T16:13:27.741Z,2.65
2022-09-11T16:16:14.358Z,2.40
2022-09-11T16:19:01.731Z,1.92
2022-09-11T16:21:48.003Z,1.98
2022-09-11T16:24:37.162Z,1.95
2022-09-11T16:27:24.421Z,2.53
2022-09-11T16:33:16.157Z,1.90
2022-09-11T16:36:05.536Z,2.05
2022-09-11T16:38:52.447Z,2.47
2022-09-11T16:41:38.903Z,2.25
2022-09-11T16:44:24.204Z,1.80
2022-09-11T16:47:09.831Z,2.10
2022-09-11T16:50:10.837Z,2.10
2022-09-11T16:52:57.155Z,2.15
2022-09-11T16:55:42.876Z,1.95
2022-09-11T16:58:28.938Z,2.33
2022-09-11T17:01:22.067Z,2.10
2022-09-11T17:04:07.745Z,3.03
2022-09-11T17:06:53.368Z,2.58
2022-09-11T17:09:38.840Z,2.08
2022-09-11T17:12:25.164Z,2.20
2022-09-11T17:15:10.706Z,2.67
2022-09-11T17:17:55.830Z,3.88
2022-09-11T17:20:41.786Z,2.70
2022-09-11T17:23:27.047Z,2.55
2022-09-11T17:26:15.224Z,2.42
2022-09-11T17:29:04.856Z,3.28
2022-09-11T17:32:01.090Z,2.10
2022-09-11T17:34:56.516Z,1.95
2022-09-11T17:37:42.824Z,2.40
2022-09-11T17:40:28.362Z,2.47
2022-09-11T17:43:13.862Z,2.38
2022-09-11T17:46:06.370Z,2.38
2022-09-11T17:48:52.050Z,2.67
2022-09-11T17:51:37.637Z,2.10
2022-09-11T17:54:23.178Z,2.28
2022-09-11T17:57:09.075Z,2.53
2022-09-11T17:59:55.413Z,2.10
2022-09-11T18:02:41.019Z,2.22
2022-09-11T18:05:28.756Z,2.88
2022-09-11T18:08:14.398Z,3.30
2022-09-11T18:11:01.341Z,2.60
2022-09-11T18:13:47.215Z,2.33
2022-09-11T18:16:33.078Z,2.40
2022-09-11T18:19:22.223Z,2.78
2022-09-11T18:22:09.614Z,4.28
2022-09-11T18:24:55.129Z,3.63
2022-09-11T18:27:41.132Z,2.97
2022-09-11T18:30:26.556Z,2.67
2022-09-11T18:33:12.509Z,2.72
2022-09-11T18:36:06.063Z,2.75
2022-09-11T18:38:52.805Z,3.20
2022-09-11T18:41:38.459Z,3.17
2022-09-11T18:44:25.287Z,3.15
2022-09-11T18:47:10.947Z,2.70
2022-09-11T18:49:59.595Z,3.50
2022-09-11T18:52:46.086Z,3.10
2022-09-11T18:55:31.352Z,3.58
2022-09-11T18:58:16.905Z,3.20
2022-09-11T19:01:07.624Z,3.92
2022-09-11T19:03:53.911Z,3.30
2022-09-11T19:06:40.248Z,3.97
2022-09-11T19:09:27.562Z,5.35
2022-09-11T19:12:15.868Z,4.25
2022-09-11T19:15:01.499Z,4.70
2022-09-11T19:17:47.974Z,4.32
2022-09-11T19:20:35.185Z,4.43
2022-09-11T19:23:21.283Z,3.63
2022-09-11T19:26:11.086Z,4.50
2022-09-11T19:28:57.368Z,3.83
2022-09-11T19:31:42.964Z,4.38
2022-09-11T19:34:28.882Z,3.55
2022-09-11T19:37:15.267Z,4.03
2022-09-11T19:40:00.832Z,4.65
2022-09-11T19:42:46.232Z,4.40
2022-09-11T19:45:31.767Z,3.85
2022-09-11T19:48:18.438Z,4.60
2022-09-11T19:51:07.007Z,4.55
2022-09-11T19:53:56.199Z,6.10
2022-09-11T19:56:44.282Z,6.45
2022-09-11T19:59:30.124Z,5.90
2022-09-11T20:02:16.097Z,5.82
2022-09-11T20:05:01.806Z,4.97
2022-09-11T20:07:47.552Z,5.03
2022-09-11T20:10:33.583Z,5.75
2022-09-11T20:13:19.478Z,4.25
2022-09-11T20:16:06.894Z,4.90
2022-09-11T20:18:54.454Z,4.63
2022-09-11T20:21:40.596Z,4.70
2022-09-11T20:24:26.265Z,4.60
2022-09-11T20:27:11.481Z,5.38
2022-09-11T20:29:57.269Z,5.13
2022-09-11T20:32:42.876Z,4.38
2022-09-11T20:35:28.307Z,5.00
2022-09-11T20:38:14.390Z,4.78
2022-09-11T20:41:03.691Z,4.55
2022-09-11T20:43:49.885Z,4.75
2022-09-11T20:46:35.350Z,4.07
2022-09-11T20:49:20.742Z,4.82
2022-09-11T20:52:08.473Z,4.88
2022-09-11T20:54:54.423Z,4.30
2022-09-11T20:57:39.680Z,4.85
2022-09-11T21:00:25.242Z,4.60
2022-09-11T21:03:10.807Z,4.78
2022-09-11T21:05:57.325Z,4.65
2022-09-11T21:08:44.251Z,4.90
2022-09-11T21:11:30.973Z,5.25
2022-09-11T21:14:17.228Z,5.15
2022-09-11T21:17:02.727Z,5.45
2022-09-11T21:19:48.323Z,5.60
2022-09-11T21:22:33.904Z,5.82
2022-09-11T21:25:19.311Z,6.10
2022-09-11T21:28:04.813Z,5.78
2022-09-11T21:30:50.521Z,5.38
2022-09-11T21:33:36.999Z,5.47
2022-09-11T21:36:22.756Z,4.90
2022-09-11T21:39:07.953Z,5.88
2022-09-11T21:41:53.807Z,5.72
2022-09-11T21:44:39.262Z,5.82
2022-09-11T21:47:24.778Z,5.65
2022-09-11T21:50:10.671Z,6.10
2022-09-11T21:52:55.832Z,5.45
2022-09-11T21:55:43.238Z,5.72
2022-09-11T21:58:28.729Z,5.40
2022-09-11T22:01:14.445Z,5.50
2022-09-11T22:04:00.591Z,5.30
2022-09-11T22:06:45.941Z,5.78
2022-09-11T22:09:31.352Z,6.15
2022-09-11T22:12:17.174Z,6.55
2022-09-11T22:15:02.481Z,6.18
2022-09-11T22:17:48.184Z,6.47
2022-09-11T22:20:33.675Z,6.18
2022-09-11T22:23:21.869Z,6.85
2022-09-11T22:26:11.141Z,7.07
2022-09-11T22:28:58.753Z,6.55
2022-09-11T22:31:44.364Z,7.00
2022-09-11T22:34:35.255Z,6.95
2022-09-11T22:37:20.473Z,6.63
2022-09-11T22:40:06.873Z,6.90
2022-09-11T22:42:52.923Z,7.82
2022-09-11T22:45:38.408Z,7.25
2022-09-11T22:48:23.915Z,8.80
2022-09-11T22:51:09.314Z,7.78
2022-09-11T22:53:54.724Z,7.63
2022-09-11T22:56:40.437Z,8.15
2022-09-11T22:59:25.721Z,8.65
2022-09-11T23:02:13.551Z,8.25
2022-09-11T23:05:17.531Z,9.35
2022-09-11T23:08:03.277Z,10.55
2022-09-11T23:10:48.455Z,8.63
2022-09-11T23:13:34.551Z,9.48
2022-09-11T23:16:26.132Z,9.40
2022-09-11T23:19:14.150Z,9.93
2022-09-11T23:21:59.284Z,11.80
2022-09-11T23:24:44.758Z,12.40
2022-09-11T23:27:30.379Z,11.65
2022-09-11T23:30:15.994Z,11.88
2022-09-11T23:33:01.668Z,10.55
2022-09-11T23:35:47.125Z,12.18
2022-09-11T23:38:32.835Z,11.30
2022-09-11T23:41:18.327Z,11.30
2022-09-11T23:44:04.452Z,11.07
2022-09-11T23:46:49.834Z,11.75
2022-09-11T23:49:36.518Z,12.20
2022-09-11T23:52:22.064Z,12.38
2022-09-11T23:55:08.082Z,12.70
2022-09-11T23:57:55.267Z,13.25
